Time;durP1;ratioP1;P1;durP2;ratioP2;P2;SDS_P1;SDS_P2;PMS_P1;PMS_P2;Temp;Humidity;BMP_temperature;BMP_pressure;BME280_temperature;BME280_humidity;BME280_pressure;Samples;Min_cycle;Max_cycle;Signal;HPM_P1;HPM_P2
2023/02/16 00:01:25;;;;;;;28.83;14.27;;;;;;;;;;5014111;28;20628;-60
2023/02/16 00:03:52;;;;;;;32.67;13.93;;;;;;;;;;5014549;28;20171;-61
2023/02/16 00:06:18;;;;;;;34.88;15.07;;;;;;;;;;5013004;28;20283;-62
2023/02/16 00:08:46;;;;;;;28.67;15.40;;;;;;;;;;5014381;28;20596;-62
2023/02/16 00:13:59;;;;;;;29.88;14.60;;;;;;;;;;5014520;28;20493;-59
2023/02/16 00:16:25;;;;;;;26.92;15.23;;;;;;;;;;5014008;28;20162;-60
2023/02/16 00:18:52;;;;;;;28.60;14.95;;;;;;;;;;5013894;28;20607;-58
2023/02/16 00:21:18;;;;;;;29.15;15.40;;;;;;;;;;5014081;28;20170;-60
2023/02/16 00:23:44;;;;;;;26.35;14.95;;;;;;;;;;5014135;28;20166;-59
2023/02/16 00:26:17;;;;;;;27.90;14.75;;;;;;;;;;5014004;28;20561;-59
2023/02/16 00:28:44;;;;;;;30.90;15.27;;;;;;;;;;5014065;28;20159;-60
2023/02/16 00:31:15;;;;;;;25.83;14.63;;;;;;;;;;5014110;28;20198;-60
2023/02/16 00:33:41;;;;;;;27.88;15.52;;;;;;;;;;5014106;28;20178;-57
2023/02/16 00:36:07;;;;;;;34.55;15.27;;;;;;;;;;5014107;28;20170;-58
2023/02/16 00:38:33;;;;;;;27.00;14.52;;;;;;;;;;5013984;28;20173;-59
2023/02/16 00:40:59;;;;;;;35.83;15.25;;;;;;;;;;5013770;28;20170;-60
2023/02/16 00:43:29;;;;;;;25.00;14.73;;;;;;;;;;5017391;28;20170;-62
2023/02/16 00:45:55;;;;;;;28.92;14.25;;;;;;;;;;5019742;28;20174;-63
2023/02/16 00:48:22;;;;;;;28.58;14.80;;;;;;;;;;5016341;28;20257;-62
2023/02/16 00:50:48;;;;;;;28.35;14.57;;;;;;;;;;5014126;28;20202;-62
2023/02/16 00:53:14;;;;;;;26.73;14.43;;;;;;;;;;5013066;28;20495;-62
2023/02/16 00:55:41;;;;;;;24.20;13.60;;;;;;;;;;5013653;28;20162;-63
2023/02/16 00:58:11;;;;;;;26.63;13.57;;;;;;;;;;5013798;28;20185;-62
2023/02/16 01:00:39;;;;;;;31.02;13.65;;;;;;;;;;5013592;28;20158;-61
2023/02/16 01:03:06;;;;;;;27.95;13.77;;;;;;;;;;5013130;28;20655;-62
2023/02/16 01:05:32;;;;;;;25.25;13.73;;;;;;;;;;5013529;28;20186;-60
2023/02/16 01:11:16;;;;;;;37.92;13.93;;;;;;;;;;5013494;28;20201;-62
2023/02/16 01:13:38;;;;;;;31.77;13.88;;;;;;;;;;5015911;28;20177;-60
2023/02/16 01:16:09;;;;;;;45.10;13.95;;;;;;;;;;5012909;28;20166;-62
2023/02/16 01:18:35;;;;;;;42.47;14.98;;;;;;;;;;5013646;28;20226;-63
2023/02/16 01:21:01;;;;;;;37.42;14.18;;;;;;;;;;5013114;28;20474;-63
2023/02/16 01:23:28;;;;;;;37.33;14.38;;;;;;;;;;5013182;28;20492;-61
2023/02/16 01:25:54;;;;;;;31.75;14.20;;;;;;;;;;5013113;28;20182;-62
2023/02/16 01:28:21;;;;;;;26.40;15.27;;;;;;;;;;5013137;28;20230;-61
2023/02/16 01:30:47;;;;;;;28.40;14.63;;;;;;;;;;5012208;28;20197;-59
2023/02/16 01:33:13;;;;;;;28.27;14.85;;;;;;;;;;5013424;28;20577;-60
2023/02/16 01:35:39;;;;;;;28.15;14.68;;;;;;;;;;5012942;28;20496;-61
2023/02/16 01:38:05;;;;;;;32.05;14.40;;;;;;;;;;5012828;28;20166;-61
2023/02/16 01:40:31;;;;;;;25.73;14.32;;;;;;;;;;5012998;28;20174;-60
2023/02/16 01:43:01;;;;;;;24.65;13.52;;;;;;;;;;5013058;28;20173;-62
2023/02/16 01:45:34;;;;;;;25.55;13.60;;;;;;;;;;5012624;28;20601;-62
2023/02/16 01:48:04;;;;;;;22.13;13.63;;;;;;;;;;5012869;28;20166;-61
2023/02/16 01:50:39;;;;;;;26.58;13.60;;;;;;;;;;5011466;28;20166;-60
2023/02/16 01:53:11;;;;;;;24.15;13.55;;;;;;;;;;5013001;28;20580;-60
2023/02/16 01:55:41;;;;;;;24.20;13.77;;;;;;;;;;5012707;28;20159;-62
2023/02/16 01:58:12;;;;;;;27.13;14.15;;;;;;;;;;5012748;28;20166;-62
2023/02/16 02:00:50;;;;;;;27.40;13.48;;;;;;;;;;5013128;28;20455;-60
2023/02/16 02:06:21;;;;;;;25.42;13.98;;;;;;;;;;5012325;28;20184;-63
2023/02/16 02:08:56;;;;;;;25.70;14.00;;;;;;;;;;5012585;28;20170;-61
2023/02/16 02:11:27;;;;;;;24.88;14.35;;;;;;;;;;5012144;28;20181;-63
2023/02/16 02:14:12;;;;;;;22.23;13.98;;;;;;;;;;5012353;28;20178;-63
2023/02/16 02:16:38;;;;;;;23.70;13.15;;;;;;;;;;5012426;28;20240;-63
2023/02/16 02:19:04;;;;;;;23.90;13.25;;;;;;;;;;5012448;28;20178;-62
2023/02/16 02:24:32;;;;;;;24.33;14.15;;;;;;;;;;5012222;28;20494;-62
2023/02/16 02:27:10;;;;;;;22.70;13.80;;;;;;;;;;5012368;28;20166;-61
2023/02/16 02:29:41;;;;;;;22.67;13.07;;;;;;;;;;5012073;28;20174;-61
2023/02/16 02:32:07;;;;;;;23.63;14.07;;;;;;;;;;5012112;28;20696;-62
2023/02/16 02:34:33;;;;;;;25.52;15.15;;;;;;;;;;5012264;28;20265;-62
2023/02/16 02:37:19;;;;;;;23.13;14.32;;;;;;;;;;5011877;28;20257;-61
2023/02/16 02:39:50;;;;;;;23.23;13.75;;;;;;;;;;5012293;28;20248;-62
2023/02/16 02:42:24;;;;;;;24.65;14.50;;;;;;;;;;5015355;28;20224;-63
2023/02/16 02:44:56;;;;;;;24.20;14.57;;;;;;;;;;5015408;28;20172;-62
2023/02/16 02:47:21;;;;;;;25.42;14.60;;;;;;;;;;5015283;28;20597;-61
2023/02/16 02:49:51;;;;;;;26.23;14.75;;;;;;;;;;5015651;28;20181;-61
2023/02/16 02:52:17;;;;;;;25.05;14.70;;;;;;;;;;5015717;28;20193;-61
2023/02/16 03:00:40;;;;;;;28.85;14.95;;;;;;;;;;5015153;28;20185;-61
2023/02/16 03:03:10;;;;;;;27.13;15.65;;;;;;;;;;5015071;28;20215;-60
2023/02/16 03:05:37;;;;;;;28.73;15.48;;;;;;;;;;5015407;28;20497;-59
2023/02/16 03:08:13;;;;;;;25.65;15.45;;;;;;;;;;5015158;28;20495;-60
2023/02/16 03:13:28;;;;;;;28.75;15.55;;;;;;;;;;5015259;28;20166;-60
2023/02/16 03:15:56;;;;;;;28.52;16.50;;;;;;;;;;5015390;28;20174;-60
2023/02/16 03:29:25;;;;;;;30.23;15.77;;;;;;;;;;5015053;28;20224;-62
2023/02/16 03:31:53;;;;;;;31.42;17.13;;;;;;;;;;5014804;28;20285;-62
2023/02/16 03:34:19;;;;;;;32.67;17.70;;;;;;;;;;5022416;28;20170;-61
2023/02/16 03:36:47;;;;;;;32.22;16.92;;;;;;;;;;5033415;28;20170;-60
2023/02/16 03:39:13;;;;;;;28.92;16.70;;;;;;;;;;5031920;28;20177;-59
2023/02/16 03:41:41;;;;;;;32.38;16.42;;;;;;;;;;5019021;28;20575;-63
2023/02/16 03:44:07;;;;;;;32.05;18.00;;;;;;;;;;5015051;28;20276;-62
2023/02/16 03:46:33;;;;;;;29.63;16.60;;;;;;;;;;5014747;28;20554;-61
2023/02/16 03:48:59;;;;;;;31.13;17.25;;;;;;;;;;5014367;28;20566;-62
2023/02/16 03:51:25;;;;;;;32.17;17.30;;;;;;;;;;5014562;28;20193;-61
2023/02/16 03:53:52;;;;;;;30.75;17.27;;;;;;;;;;5013683;28;20607;-62
2023/02/16 03:56:18;;;;;;;29.63;16.63;;;;;;;;;;5014226;28;20604;-63
2023/02/16 03:58:43;;;;;;;31.38;17.25;;;;;;;;;;5014913;28;20175;-62
2023/02/16 04:01:09;;;;;;;30.02;16.95;;;;;;;;;;5014363;28;20174;-62
2023/02/16 04:03:35;;;;;;;27.05;16.30;;;;;;;;;;5014109;28;20230;-61
2023/02/16 04:06:01;;;;;;;31.80;16.23;;;;;;;;;;5014530;28;20170;-62
2023/02/16 04:08:27;;;;;;;30.27;15.95;;;;;;;;;;5014025;28;20163;-62
2023/02/16 04:10:55;;;;;;;29.98;17.27;;;;;;;;;;5014384;28;20202;-62
2023/02/16 04:13:21;;;;;;;30.02;16.63;;;;;;;;;;5014295;28;20170;-62
2023/02/16 04:15:48;;;;;;;32.20;16.10;;;;;;;;;;5014092;28;20670;-59
2023/02/16 04:18:14;;;;;;;30.15;16.83;;;;;;;;;;5014421;28;20166;-60
2023/02/16 04:20:40;;;;;;;32.58;17.27;;;;;;;;;;5014522;28;20491;-61
2023/02/16 04:23:06;;;;;;;31.80;16.92;;;;;;;;;;5014334;28;20175;-58
2023/02/16 04:25:32;;;;;;;31.58;17.00;;;;;;;;;;5014202;28;20170;-62
2023/02/16 04:27:58;;;;;;;32.40;18.10;;;;;;;;;;5013960;28;20173;-62
2023/02/16 04:30:25;;;;;;;31.73;16.13;;;;;;;;;;5014058;28;20174;-62
2023/02/16 04:32:52;;;;;;;32.13;17.63;;;;;;;;;;5013849;28;20577;-61
2023/02/16 04:35:18;;;;;;;34.38;17.88;;;;;;;;;;5013860;28;20219;-61
2023/02/16 04:37:45;;;;;;;28.20;17.33;;;;;;;;;;5014030;28;20182;-61
2023/02/16 04:40:12;;;;;;;32.53;17.35;;;;;;;;;;5013867;28;20166;-62
2023/02/16 04:42:38;;;;;;;30.80;17.20;;;;;;;;;;5013836;28;20170;-60
2023/02/16 04:45:04;;;;;;;34.70;18.73;;;;;;;;;;5013753;28;20197;-60
2023/02/16 04:47:34;;;;;;;32.90;17.90;;;;;;;;;;5013786;28;20170;-62
2023/02/16 04:50:00;;;;;;;34.55;18.52;;;;;;;;;;5013714;28;20263;-62
2023/02/16 04:52:26;;;;;;;33.58;17.95;;;;;;;;;;5013604;28;20198;-62
2023/02/16 04:54:52;;;;;;;34.97;17.92;;;;;;;;;;5013701;28;20465;-63
2023/02/16 04:57:20;;;;;;;36.88;19.50;;;;;;;;;;5013560;28;20174;-62
2023/02/16 04:59:46;;;;;;;35.58;18.70;;;;;;;;;;5013671;28;20174;-59
2023/02/16 05:02:12;;;;;;;33.70;18.33;;;;;;;;;;5013564;28;20243;-60
2023/02/16 05:04:38;;;;;;;30.52;16.80;;;;;;;;;;5012156;28;20174;-58
2023/02/16 05:07:04;;;;;;;37.88;18.88;;;;;;;;;;5013216;28;20604;-60
2023/02/16 05:09:30;;;;;;;35.17;18.58;;;;;;;;;;5013370;28;20223;-61
2023/02/16 05:14:40;;;;;;;35.05;18.73;;;;;;;;;;5013296;28;20546;-62
2023/02/16 05:17:07;;;;;;;39.55;18.98;;;;;;;;;;5013539;28;20163;-59
2023/02/16 05:19:33;;;;;;;36.55;19.20;;;;;;;;;;5013105;28;20596;-60
2023/02/16 05:21:59;;;;;;;37.60;19.27;;;;;;;;;;5013711;28;20189;-59
2023/02/16 05:24:25;;;;;;;36.45;18.92;;;;;;;;;;5013077;28;20683;-60
2023/02/16 05:26:51;;;;;;;43.30;20.75;;;;;;;;;;5013040;28;20260;-60
2023/02/16 05:29:17;;;;;;;35.63;19.67;;;;;;;;;;5013240;28;20493;-62
2023/02/16 05:31:43;;;;;;;36.58;19.50;;;;;;;;;;5013933;28;20198;-60
2023/02/16 05:34:08;;;;;;;39.53;20.48;;;;;;;;;;5013678;28;20170;-59
2023/02/16 05:36:34;;;;;;;38.40;20.42;;;;;;;;;;5013213;28;20177;-61
2023/02/16 05:39:00;;;;;;;44.53;22.20;;;;;;;;;;5013025;28;20265;-60
2023/02/16 05:41:26;;;;;;;38.72;21.02;;;;;;;;;;5013139;28;20234;-60
2023/02/16 05:43:53;;;;;;;39.40;20.75;;;;;;;;;;5012575;28;20635;-62
2023/02/16 05:46:20;;;;;;;38.17;20.77;;;;;;;;;;5013356;28;20477;-62
2023/02/16 05:48:46;;;;;;;40.70;21.20;;;;;;;;;;5012826;28;20167;-61
2023/02/16 05:51:12;;;;;;;39.92;21.02;;;;;;;;;;5012582;28;20224;-59
2023/02/16 05:53:39;;;;;;;40.35;22.52;;;;;;;;;;5012849;28;20170;-60
2023/02/16 05:56:05;;;;;;;40.35;20.83;;;;;;;;;;5012786;28;20170;-62
2023/02/16 05:58:31;;;;;;;35.92;20.48;;;;;;;;;;5012707;28;20197;-60
2023/02/16 06:00:57;;;;;;;40.35;21.98;;;;;;;;;;5012401;28;20283;-60
2023/02/16 06:03:23;;;;;;;39.03;21.58;;;;;;;;;;5012187;28;20201;-61
2023/02/16 06:05:53;;;;;;;44.40;22.58;;;;;;;;;;5012303;28;20506;-61
2023/02/16 06:08:19;;;;;;;37.05;20.45;;;;;;;;;;5012564;28;20466;-61
2023/02/16 06:10:45;;;;;;;38.05;21.63;;;;;;;;;;5012632;28;20177;-62
2023/02/16 06:13:12;;;;;;;42.92;21.17;;;;;;;;;;5012541;28;20523;-61
2023/02/16 06:15:38;;;;;;;36.78;20.67;;;;;;;;;;5014268;28;20170;-62
2023/02/16 06:18:04;;;;;;;37.47;20.42;;;;;;;;;;5019065;28;20521;-63
2023/02/16 06:20:30;;;;;;;43.20;21.58;;;;;;;;;;5018949;28;20173;-63
2023/02/16 06:22:56;;;;;;;41.20;20.50;;;;;;;;;;5019010;28;20180;-61
2023/02/16 06:25:22;;;;;;;37.55;21.13;;;;;;;;;;5033152;28;20199;-62
2023/02/16 06:27:48;;;;;;;40.25;21.40;;;;;;;;;;5037597;28;20177;-60
2023/02/16 06:30:15;;;;;;;40.22;21.02;;;;;;;;;;5025064;28;20253;-62
2023/02/16 06:32:40;;;;;;;42.85;21.33;;;;;;;;;;5018903;28;20209;-60
2023/02/16 06:35:07;;;;;;;37.33;20.25;;;;;;;;;;5018485;28;20168;-63
2023/02/16 06:37:33;;;;;;;34.47;19.80;;;;;;;;;;5018460;28;20511;-62
2023/02/16 06:39:59;;;;;;;38.30;21.13;;;;;;;;;;5018645;28;20166;-61
2023/02/16 06:42:25;;;;;;;39.70;20.52;;;;;;;;;;5018891;28;20258;-61
2023/02/16 06:44:51;;;;;;;42.65;21.25;;;;;;;;;;5018572;28;20609;-62
2023/02/16 06:47:17;;;;;;;39.65;20.55;;;;;;;;;;5018897;28;20600;-61
2023/02/16 06:49:42;;;;;;;43.90;21.13;;;;;;;;;;5018664;28;20616;-62
2023/02/16 06:52:08;;;;;;;38.95;20.40;;;;;;;;;;5018582;28;20194;-62
2023/02/16 06:54:34;;;;;;;39.28;20.85;;;;;;;;;;5018652;28;20262;-61
2023/02/16 06:57:00;;;;;;;36.83;19.90;;;;;;;;;;5018670;28;20174;-61
2023/02/16 06:59:26;;;;;;;34.95;19.42;;;;;;;;;;5018484;28;20584;-62
2023/02/16 07:01:52;;;;;;;38.22;19.67;;;;;;;;;;5018348;28;20186;-62
2023/02/16 07:04:18;;;;;;;30.85;19.38;;;;;;;;;;5018498;28;20175;-61
2023/02/16 07:06:44;;;;;;;33.38;20.17;;;;;;;;;;5018559;28;20178;-61
2023/02/16 07:09:10;;;;;;;36.90;20.83;;;;;;;;;;5018263;28;20176;-62
2023/02/16 07:11:36;;;;;;;33.30;19.55;;;;;;;;;;5018129;28;20197;-62
2023/02/16 07:14:02;;;;;;;35.80;20.67;;;;;;;;;;5018321;28;20559;-62
2023/02/16 07:16:28;;;;;;;34.47;19.42;;;;;;;;;;5018129;28;20554;-61
2023/02/16 07:18:54;;;;;;;36.75;20.77;;;;;;;;;;5018343;28;20194;-61
2023/02/16 07:21:20;;;;;;;34.95;20.95;;;;;;;;;;5018137;28;20208;-62
2023/02/16 07:23:46;;;;;;;35.28;20.17;;;;;;;;;;5018021;28;20193;-61
2023/02/16 07:26:12;;;;;;;35.90;19.92;;;;;;;;;;5017955;28;20170;-60
2023/02/16 07:28:38;;;;;;;37.45;21.48;;;;;;;;;;5014185;28;20174;-62
2023/02/16 07:31:09;;;;;;;35.35;20.00;;;;;;;;;;5014722;28;20194;-56
2023/02/16 07:33:36;;;;;;;36.03;19.60;;;;;;;;;;5014955;28;20202;-58
2023/02/16 07:36:03;;;;;;;33.72;19.67;;;;;;;;;;5014646;28;20163;-59
2023/02/16 07:38:29;;;;;;;36.72;20.98;;;;;;;;;;5014966;28;20174;-61
2023/02/16 07:40:56;;;;;;;35.42;20.67;;;;;;;;;;5014950;28;20170;-61
2023/02/16 07:43:22;;;;;;;33.00;19.05;;;;;;;;;;5014760;28;20503;-61
2023/02/16 07:45:49;;;;;;;36.42;20.92;;;;;;;;;;5014702;28;20162;-60
2023/02/16 07:48:15;;;;;;;37.58;20.40;;;;;;;;;;5014483;28;20170;-60
2023/02/16 07:50:41;;;;;;;34.80;20.42;;;;;;;;;;5014435;28;20170;-61
2023/02/16 07:53:07;;;;;;;36.28;20.65;;;;;;;;;;5014449;28;20495;-60
2023/02/16 07:55:33;;;;;;;40.72;21.88;;;;;;;;;;5014634;28;20170;-61
2023/02/16 07:57:59;;;;;;;35.55;20.40;;;;;;;;;;5014405;28;20260;-60
2023/02/16 08:00:25;;;;;;;37.53;21.42;;;;;;;;;;5014071;28;20205;-61
2023/02/16 08:02:52;;;;;;;39.13;22.02;;;;;;;;;;5014221;28;20280;-61
2023/02/16 08:05:18;;;;;;;42.33;22.17;;;;;;;;;;5014302;28;20170;-61
2023/02/16 08:07:44;;;;;;;37.72;21.05;;;;;;;;;;5015006;28;20166;-60
2023/02/16 08:10:11;;;;;;;36.85;20.73;;;;;;;;;;5014372;28;20170;-62
2023/02/16 08:12:37;;;;;;;37.90;22.77;;;;;;;;;;5014283;28;20258;-62
2023/02/16 08:15:03;;;;;;;34.30;21.52;;;;;;;;;;5014184;28;20450;-62
2023/02/16 08:17:29;;;;;;;38.72;21.27;;;;;;;;;;5013936;28;20585;-62
2023/02/16 08:19:55;;;;;;;37.08;21.15;;;;;;;;;;5014078;28;20171;-61
2023/02/16 08:22:22;;;;;;;36.60;21.35;;;;;;;;;;5013854;28;20181;-60
2023/02/16 08:24:48;;;;;;;33.90;21.17;;;;;;;;;;5014173;28;20170;-62
2023/02/16 08:27:14;;;;;;;39.47;22.65;;;;;;;;;;5013665;28;20264;-60
2023/02/16 08:29:40;;;;;;;37.35;21.73;;;;;;;;;;5014095;28;20289;-60
2023/02/16 08:32:07;;;;;;;36.67;22.35;;;;;;;;;;5013981;28;20521;-61
2023/02/16 08:34:34;;;;;;;38.05;22.42;;;;;;;;;;5014576;28;20612;-61
2023/02/16 08:37:01;;;;;;;35.03;21.83;;;;;;;;;;5013922;28;20178;-61
2023/02/16 08:39:28;;;;;;;35.75;21.00;;;;;;;;;;5013731;28;20185;-60
2023/02/16 08:41:54;;;;;;;36.20;22.25;;;;;;;;;;5013572;28;20647;-60
2023/02/16 08:44:22;;;;;;;39.13;21.70;;;;;;;;;;5013568;28;20170;-62
2023/02/16 08:46:49;;;;;;;33.55;21.45;;;;;;;;;;5013730;28;20174;-58
2023/02/16 08:49:17;;;;;;;45.20;24.88;;;;;;;;;;5013832;28;20325;-61
2023/02/16 08:51:44;;;;;;;42.60;24.58;;;;;;;;;;5013762;28;20198;-62
2023/02/16 08:54:14;;;;;;;32.05;20.70;;;;;;;;;;5013710;28;20170;-61
2023/02/16 08:56:44;;;;;;;36.58;23.25;;;;;;;;;;5013847;28;20166;-61
2023/02/16 08:59:10;;;;;;;37.60;23.48;;;;;;;;;;5014026;28;20630;-61
2023/02/16 09:01:36;;;;;;;39.72;21.67;;;;;;;;;;5026929;28;20170;-61
2023/02/16 09:04:02;;;;;;;37.65;23.38;;;;;;;;;;5026703;28;20299;-60
2023/02/16 09:06:28;;;;;;;35.25;22.10;;;;;;;;;;5016053;28;20722;-60
2023/02/16 09:08:56;;;;;;;35.53;21.67;;;;;;;;;;5013601;28;20216;-58
2023/02/16 09:11:22;;;;;;;36.10;22.65;;;;;;;;;;5013427;28;20201;-60
2023/02/16 09:13:49;;;;;;;41.90;25.48;;;;;;;;;;5013883;28;20227;-58
2023/02/16 09:16:17;;;;;;;37.88;23.38;;;;;;;;;;5013372;28;20482;-62
2023/02/16 09:18:43;;;;;;;37.50;23.25;;;;;;;;;;5013655;28;20167;-61
2023/02/16 09:21:17;;;;;;;37.25;24.80;;;;;;;;;;5013438;28;20228;-59
2023/02/16 09:23:47;;;;;;;38.28;24.38;;;;;;;;;;5013654;28;20174;-60
2023/02/16 09:26:15;;;;;;;38.13;24.00;;;;;;;;;;5013312;28;20161;-61
2023/02/16 09:28:41;;;;;;;38.80;24.33;;;;;;;;;;5014133;28;20193;-61
2023/02/16 09:31:10;;;;;;;44.90;26.63;;;;;;;;;;5013251;28;20206;-61
2023/02/16 09:33:36;;;;;;;39.35;24.83;;;;;;;;;;5013959;28;20171;-62
2023/02/16 09:36:06;;;;;;;33.60;22.83;;;;;;;;;;5013336;28;20223;-61
2023/02/16 09:38:32;;;;;;;37.70;24.38;;;;;;;;;;5012856;28;20589;-60
2023/02/16 09:40:59;;;;;;;36.25;23.27;;;;;;;;;;5012774;28;20504;-61
2023/02/16 09:43:34;;;;;;;34.75;23.40;;;;;;;;;;5013452;28;20255;-60
2023/02/16 09:46:01;;;;;;;36.72;24.45;;;;;;;;;;5012963;28;20165;-61
2023/02/16 09:48:35;;;;;;;37.78;24.13;;;;;;;;;;5013053;28;20185;-61
2023/02/16 09:51:03;;;;;;;40.00;24.35;;;;;;;;;;5012312;28;20158;-61
2023/02/16 09:53:36;;;;;;;37.63;23.25;;;;;;;;;;5013057;28;20166;-61
2023/02/16 09:56:15;;;;;;;36.55;24.02;;;;;;;;;;5012927;28;20167;-60
2023/02/16 09:58:44;;;;;;;38.35;23.67;;;;;;;;;;5012690;28;20223;-62
2023/02/16 10:01:16;;;;;;;36.00;24.00;;;;;;;;;;5012635;28;20474;-60
2023/02/16 10:03:48;;;;;;;37.38;24.35;;;;;;;;;;5012304;28;20628;-61
2023/02/16 10:06:27;;;;;;;34.10;22.38;;;;;;;;;;5012505;28;20628;-60
2023/02/16 10:08:59;;;;;;;32.53;21.70;;;;;;;;;;5012425;28;20243;-62
2023/02/16 10:11:45;;;;;;;66.13;26.35;;;;;;;;;;5012568;28;20225;-60
2023/02/16 10:14:22;;;;;;;33.38;22.45;;;;;;;;;;5012535;28;20538;-63
2023/02/16 10:16:53;;;;;;;31.63;21.40;;;;;;;;;;5012062;28;20481;-62
2023/02/16 10:19:24;;;;;;;34.42;23.55;;;;;;;;;;5012363;28;20172;-62
2023/02/16 10:21:52;;;;;;;33.55;21.83;;;;;;;;;;5011919;28;20609;-61
2023/02/16 10:24:19;;;;;;;45.58;28.98;;;;;;;;;;5012197;28;20166;-61
2023/02/16 10:26:51;;;;;;;34.80;22.90;;;;;;;;;;5012288;28;20170;-62
2023/02/16 10:29:21;;;;;;;34.70;22.85;;;;;;;;;;5012291;28;20174;-62
2023/02/16 10:31:50;;;;;;;36.50;22.85;;;;;;;;;;5011865;28;20617;-61
2023/02/16 10:34:18;;;;;;;33.85;21.42;;;;;;;;;;5012103;28;20240;-61
2023/02/16 10:36:48;;;;;;;32.75;21.65;;;;;;;;;;5011796;28;20170;-61
2023/02/16 10:39:38;;;;;;;30.77;21.60;;;;;;;;;;5012188;28;20171;-63
2023/02/16 10:42:23;;;;;;;35.58;22.52;;;;;;;;;;5012283;28;20254;-63
2023/02/16 10:45:02;;;;;;;33.20;22.83;;;;;;;;;;5012052;28;20623;-60
2023/02/16 10:47:37;;;;;;;29.60;21.60;;;;;;;;;;5012367;28;20230;-62
2023/02/16 10:50:05;;;;;;;33.40;22.02;;;;;;;;;;5012202;28;20159;-63
2023/02/16 10:52:34;;;;;;;36.28;22.17;;;;;;;;;;5012221;28;20202;-63
2023/02/16 10:55:01;;;;;;;37.45;22.20;;;;;;;;;;5012066;28;20204;-62
2023/02/16 10:57:29;;;;;;;38.85;23.27;;;;;;;;;;5012018;28;20167;-61
2023/02/16 10:59:57;;;;;;;33.65;21.85;;;;;;;;;;5012038;28;20182;-63
2023/02/16 11:02:25;;;;;;;35.17;22.75;;;;;;;;;;5012119;28;20222;-61
2023/02/16 11:04:53;;;;;;;35.30;23.40;;;;;;;;;;5015399;28;20173;-62
2023/02/16 11:07:21;;;;;;;32.92;22.65;;;;;;;;;;5015297;28;20245;-62
2023/02/16 11:09:49;;;;;;;34.95;23.30;;;;;;;;;;5015260;28;20201;-62
2023/02/16 11:12:25;;;;;;;31.90;21.48;;;;;;;;;;5014718;28;20651;-62
2023/02/16 11:14:52;;;;;;;32.83;22.17;;;;;;;;;;5015093;28;20212;-62
2023/02/16 11:17:20;;;;;;;37.72;23.25;;;;;;;;;;5014889;28;20173;-62
2023/02/16 11:19:57;;;;;;;38.92;24.33;;;;;;;;;;5015133;28;20162;-62
2023/02/16 11:22:28;;;;;;;34.63;23.52;;;;;;;;;;5014920;28;20549;-62
2023/02/16 11:24:54;;;;;;;36.47;22.75;;;;;;;;;;5014821;28;20257;-61
2023/02/16 11:27:22;;;;;;;33.22;21.25;;;;;;;;;;5015049;28;20175;-61
2023/02/16 11:29:49;;;;;;;35.10;22.30;;;;;;;;;;5014753;28;20167;-62
2023/02/16 11:32:16;;;;;;;33.00;22.65;;;;;;;;;;5014833;28;20206;-62
2023/02/16 11:34:44;;;;;;;31.15;21.27;;;;;;;;;;5014938;28;20185;-62
2023/02/16 11:37:27;;;;;;;34.13;23.23;;;;;;;;;;5014817;28;20194;-62
2023/02/16 11:39:55;;;;;;;34.63;21.70;;;;;;;;;;5014940;28;20624;-59
2023/02/16 11:42:21;;;;;;;36.33;23.63;;;;;;;;;;5014492;28;20269;-62
2023/02/16 11:44:52;;;;;;;34.15;21.95;;;;;;;;;;5015059;28;20198;-62
2023/02/16 11:47:23;;;;;;;32.03;21.33;;;;;;;;;;5022172;28;20181;-62
2023/02/16 11:49:58;;;;;;;32.85;22.10;;;;;;;;;;5024283;28;20182;-62
2023/02/16 11:52:29;;;;;;;32.50;22.40;;;;;;;;;;5015317;28;20578;-60
2023/02/16 11:54:56;;;;;;;33.05;22.67;;;;;;;;;;5015239;28;20496;-58
2023/02/16 11:57:24;;;;;;;35.25;23.30;;;;;;;;;;5014220;28;20611;-59
2023/02/16 11:59:50;;;;;;;35.40;22.35;;;;;;;;;;5014549;28;20252;-63
2023/02/16 12:02:17;;;;;;;33.45;22.63;;;;;;;;;;5014051;28;20700;-61
2023/02/16 12:04:49;;;;;;;33.35;22.35;;;;;;;;;;5014081;28;20167;-61
2023/02/16 12:07:30;;;;;;;34.85;22.83;;;;;;;;;;5014299;28;20268;-62
2023/02/16 12:09:59;;;;;;;36.75;24.83;;;;;;;;;;5014169;28;20411;-62
2023/02/16 12:12:37;;;;;;;36.65;24.30;;;;;;;;;;5014200;28;20279;-62
2023/02/16 12:15:15;;;;;;;33.50;22.42;;;;;;;;;;5013636;28;20635;-62
2023/02/16 12:17:46;;;;;;;34.40;22.80;;;;;;;;;;5014293;28;20183;-61
2023/02/16 12:20:23;;;;;;;34.78;22.77;;;;;;;;;;5014288;28;20157;-62
2023/02/16 12:22:54;;;;;;;35.13;23.65;;;;;;;;;;5013926;28;20667;-62
2023/02/16 12:25:36;;;;;;;36.05;23.15;;;;;;;;;;5014053;28;20253;-62
2023/02/16 12:28:21;;;;;;;35.60;22.58;;;;;;;;;;5013832;28;20186;-61
2023/02/16 12:30:54;;;;;;;32.95;23.00;;;;;;;;;;5013981;28;20519;-62
2023/02/16 12:33:32;;;;;;;36.20;23.88;;;;;;;;;;5013923;28;20600;-62
2023/02/16 12:36:02;;;;;;;34.80;21.80;;;;;;;;;;5013567;28;20596;-60
2023/02/16 12:38:46;;;;;;;37.47;23.05;;;;;;;;;;5013998;28;20240;-60
2023/02/16 12:41:31;;;;;;;34.20;21.58;;;;;;;;;;5013963;28;20261;-61
2023/02/16 12:44:01;;;;;;;33.63;23.00;;;;;;;;;;5014185;28;20181;-61
2023/02/16 12:46:32;;;;;;;38.70;25.00;;;;;;;;;;5013833;28;20185;-62
2023/02/16 12:49:02;;;;;;;34.95;23.67;;;;;;;;;;5013741;28;20194;-61
2023/02/16 12:51:36;;;;;;;34.65;22.33;;;;;;;;;;5013688;28;20190;-61
2023/02/16 12:54:13;;;;;;;34.90;22.88;;;;;;;;;;5013309;28;20596;-61
2023/02/16 12:56:41;;;;;;;33.10;22.80;;;;;;;;;;5013648;28;20173;-61
2023/02/16 12:59:27;;;;;;;35.22;23.33;;;;;;;;;;5013514;28;20311;-64
2023/02/16 13:01:55;;;;;;;35.90;23.33;;;;;;;;;;5013632;28;20190;-62
2023/02/16 13:04:24;;;;;;;34.95;24.05;;;;;;;;;;5013656;28;20253;-62
2023/02/16 13:06:55;;;;;;;33.17;22.65;;;;;;;;;;5013240;28;20174;-62
2023/02/16 13:09:39;;;;;;;37.05;25.15;;;;;;;;;;5013781;28;20261;-63
2023/02/16 13:12:26;;;;;;;37.38;23.83;;;;;;;;;;5013282;28;20576;-60
2023/02/16 13:15:02;;;;;;;35.05;23.02;;;;;;;;;;5013172;28;20261;-63
2023/02/16 13:17:34;;;;;;;34.17;23.65;;;;;;;;;;5013338;28;20488;-60
2023/02/16 13:20:00;;;;;;;36.28;23.88;;;;;;;;;;5012984;28;20207;-63
2023/02/16 13:22:38;;;;;;;34.60;24.23;;;;;;;;;;5013254;28;20235;-62
2023/02/16 13:25:15;;;;;;;35.70;24.23;;;;;;;;;;5011928;28;20158;-62
2023/02/16 13:28:03;;;;;;;37.55;24.23;;;;;;;;;;5013154;28;20158;-63
2023/02/16 13:30:32;;;;;;;34.47;23.95;;;;;;;;;;5013369;28;20170;-60
2023/02/16 13:33:08;;;;;;;33.33;23.75;;;;;;;;;;5013658;28;20564;-61
2023/02/16 13:35:34;;;;;;;35.47;23.90;;;;;;;;;;5012978;28;20258;-62
2023/02/16 13:38:09;;;;;;;40.15;24.38;;;;;;;;;;5012735;28;20198;-62
2023/02/16 13:40:47;;;;;;;33.80;23.48;;;;;;;;;;5012883;28;20162;-60
2023/02/16 13:43:19;;;;;;;38.38;23.63;;;;;;;;;;5013063;28;20185;-62
2023/02/16 13:45:46;;;;;;;38.13;24.83;;;;;;;;;;5012813;28;20178;-61
2023/02/16 13:48:14;;;;;;;38.05;24.50;;;;;;;;;;5012851;28;20188;-63
2023/02/16 13:50:40;;;;;;;34.67;24.38;;;;;;;;;;5012738;28;20174;-61
2023/02/16 13:53:19;;;;;;;36.65;23.85;;;;;;;;;;5012766;28;20190;-60
2023/02/16 13:55:45;;;;;;;35.65;23.33;;;;;;;;;;5012736;28;20197;-63
2023/02/16 13:58:11;;;;;;;38.22;25.33;;;;;;;;;;5012625;28;20546;-58
2023/02/16 14:00:37;;;;;;;39.20;25.63;;;;;;;;;;5012320;28;20207;-61
2023/02/16 14:03:19;;;;;;;38.30;25.58;;;;;;;;;;5012304;28;20228;-62
2023/02/16 14:05:47;;;;;;;39.28;25.70;;;;;;;;;;5012376;28;20182;-60
2023/02/16 14:08:15;;;;;;;41.45;25.23;;;;;;;;;;5012519;28;20166;-62
2023/02/16 14:10:51;;;;;;;38.97;25.75;;;;;;;;;;5012396;28;20182;-62
2023/02/16 14:13:18;;;;;;;43.05;26.00;;;;;;;;;;5012716;28;20188;-61
2023/02/16 14:15:51;;;;;;;39.97;26.83;;;;;;;;;;5012478;28;20178;-62
2023/02/16 14:18:26;;;;;;;40.75;25.70;;;;;;;;;;5012830;28;20559;-62
2023/02/16 14:21:00;;;;;;;40.00;26.25;;;;;;;;;;5012233;28;20146;-62
2023/02/16 14:23:28;;;;;;;42.78;26.10;;;;;;;;;;5012334;28;20165;-62
2023/02/16 14:26:01;;;;;;;37.95;25.27;;;;;;;;;;5012676;28;20170;-61
2023/02/16 14:28:30;;;;;;;40.75;27.08;;;;;;;;;;5012201;28;20623;-62
2023/02/16 14:31:00;;;;;;;40.65;24.98;;;;;;;;;;5012308;28;20187;-62
2023/02/16 14:33:45;;;;;;;41.10;26.25;;;;;;;;;;5014101;28;20170;-61
2023/02/16 14:36:15;;;;;;;42.63;26.08;;;;;;;;;;5018042;28;20237;-62
2023/02/16 14:38:41;;;;;;;39.05;25.55;;;;;;;;;;5021281;28;20166;-61
2023/02/16 14:41:22;;;;;;;37.85;26.48;;;;;;;;;;5015912;28;20215;-62
2023/02/16 14:43:49;;;;;;;41.45;24.90;;;;;;;;;;5015863;28;20162;-60
2023/02/16 14:46:15;;;;;;;46.05;28.15;;;;;;;;;;5015730;28;20174;-62
2023/02/16 14:48:47;;;;;;;36.28;25.30;;;;;;;;;;5015545;28;20175;-62
2023/02/16 14:51:16;;;;;;;38.30;25.88;;;;;;;;;;5015159;28;20174;-62
2023/02/16 14:53:57;;;;;;;38.70;26.40;;;;;;;;;;5015144;28;20619;-61
2023/02/16 14:56:37;;;;;;;42.75;26.58;;;;;;;;;;5015141;28;20177;-60
2023/02/16 14:59:06;;;;;;;40.30;25.45;;;;;;;;;;5015261;28;20253;-62
2023/02/16 15:01:39;;;;;;;38.78;26.27;;;;;;;;;;5015262;28;20174;-60